createdAt,value
2022-10-19T00:02:25.532Z,13.73
2022-10-19T00:05:14.950Z,13.68
2022-10-19T00:08:04.762Z,13.75
2022-10-19T00:10:55.077Z,15.50
2022-10-19T00:13:44.469Z,12.82
2022-10-19T00:16:37.790Z,19.23
2022-10-19T00:19:28.512Z,16.70
2022-10-19T00:22:17.794Z,17.88
2022-10-19T00:25:07.631Z,13.85
2022-10-19T00:27:57.054Z,17.25
2022-10-19T00:33:36.971Z,13.15
2022-10-19T00:36:35.034Z,16.45
2022-10-19T00:39:24.582Z,23.13
2022-10-19T00:42:14.235Z,18.63
2022-10-19T00:45:08.809Z,18.60
2022-10-19T00:47:58.168Z,18.83
2022-10-19T00:50:49.042Z,17.02
2022-10-19T00:53:38.975Z,19.10
2022-10-19T00:56:28.413Z,19.42
2022-10-19T00:59:21.786Z,18.48
2022-10-19T01:02:11.383Z,21.10
2022-10-19T01:05:01.201Z,18.98
2022-10-19T01:07:51.070Z,19.83
2022-10-19T01:11:06.021Z,18.08
2022-10-19T01:14:37.990Z,21.08
2022-10-19T01:17:45.201Z,17.67
2022-10-19T01:21:19.927Z,21.23
2022-10-19T01:24:29.878Z,18.95
2022-10-19T01:27:34.524Z,18.83
2022-10-19T01:30:55.784Z,21.73
2022-10-19T01:33:51.989Z,18.30
2022-10-19T01:37:03.949Z,16.08
2022-10-19T01:40:13.961Z,23.10
2022-10-19T01:43:12.662Z,21.90
2022-10-19T01:46:46.450Z,19.77
2022-10-19T01:50:13.240Z,18.50
2022-10-19T01:53:05.522Z,20.42
2022-10-19T01:55:56.997Z,18.65
2022-10-19T01:58:47.950Z,22.27
2022-10-19T02:01:41.437Z,21.13
2022-10-19T02:04:32.419Z,19.92
2022-10-19T02:07:23.817Z,21.38
2022-10-19T02:10:15.890Z,21.70
2022-10-19T02:13:06.267Z,20.67
2022-10-19T02:16:00.775Z,19.58
2022-10-19T02:18:53.675Z,20.30
2022-10-19T02:21:43.313Z,19.33
2022-10-19T02:24:33.095Z,22.08
2022-10-19T02:27:22.847Z,23.00
2022-10-19T02:30:15.601Z,20.50
2022-10-19T02:33:05.389Z,23.42
2022-10-19T02:35:55.041Z,20.10
2022-10-19T02:38:44.568Z,18.92
2022-10-19T02:41:41.999Z,23.40
2022-10-19T02:44:33.322Z,18.42
2022-10-19T02:47:46.594Z,19.05
2022-10-19T02:50:36.087Z,21.52
2022-10-19T02:53:25.519Z,20.67
2022-10-19T02:56:14.911Z,21.92
2022-10-19T02:59:05.578Z,20.67
2022-10-19T03:01:55.007Z,20.75
2022-10-19T03:07:55.615Z,20.60
2022-10-19T03:10:44.918Z,24.00
2022-10-19T03:13:34.743Z,19.40
2022-10-19T03:16:24.333Z,24.60
2022-10-19T03:19:13.778Z,25.60
2022-10-19T03:22:03.254Z,21.17
2022-10-19T03:24:52.722Z,24.05
2022-10-19T03:27:42.447Z,19.67
2022-10-19T03:30:31.934Z,23.45
2022-10-19T03:33:21.443Z,24.67
2022-10-19T03:36:29.358Z,21.90
2022-10-19T03:39:18.905Z,24.08
2022-10-19T03:42:08.150Z,24.27
2022-10-19T03:44:57.618Z,24.10
2022-10-19T03:47:51.441Z,22.58
2022-10-19T03:50:40.780Z,22.80
2022-10-19T03:53:33.238Z,23.23
2022-10-19T03:56:26.232Z,20.42
2022-10-19T03:59:17.350Z,22.45
2022-10-19T04:02:06.738Z,22.58
2022-10-19T04:04:55.926Z,25.17
2022-10-19T04:07:45.429Z,24.67
2022-10-19T04:10:34.729Z,22.88
2022-10-19T04:13:24.264Z,23.98
2022-10-19T04:16:15.615Z,22.90
2022-10-19T04:19:05.299Z,28.00
2022-10-19T04:21:54.825Z,24.20
2022-10-19T04:24:44.554Z,23.05
2022-10-19T04:27:34.314Z,22.58
2022-10-19T04:30:23.794Z,22.67
2022-10-19T04:33:13.269Z,22.67
2022-10-19T04:36:04.338Z,29.67
2022-10-19T04:38:53.713Z,21.92
2022-10-19T04:41:43.304Z,23.70
2022-10-19T04:44:32.662Z,24.55
2022-10-19T04:47:22.023Z,22.98
2022-10-19T04:50:14.343Z,23.05
2022-10-19T04:53:03.945Z,26.85
2022-10-19T04:55:53.554Z,23.58
2022-10-19T04:58:42.984Z,26.42
2022-10-19T05:01:32.954Z,22.08
2022-10-19T05:04:22.503Z,23.13
2022-10-19T05:07:12.072Z,23.17
2022-10-19T05:10:01.668Z,24.40
2022-10-19T05:12:51.298Z,24.30
2022-10-19T05:15:40.890Z,24.20
2022-10-19T05:18:30.516Z,24.08
2022-10-19T05:21:21.921Z,21.33
2022-10-19T05:24:14.790Z,28.13
2022-10-19T05:27:04.582Z,26.73
2022-10-19T05:29:54.022Z,22.88
2022-10-19T05:32:43.322Z,23.20
2022-10-19T05:35:32.949Z,24.90
2022-10-19T05:38:22.629Z,23.73
2022-10-19T05:41:11.989Z,23.73
2022-10-19T05:44:02.882Z,21.98
2022-10-19T05:46:53.391Z,24.02
2022-10-19T05:49:42.674Z,23.65
2022-10-19T05:52:32.057Z,25.48
2022-10-19T05:55:21.386Z,24.63
2022-10-19T05:58:10.998Z,23.52
2022-10-19T06:01:01.854Z,22.48
2022-10-19T06:03:56.991Z,24.25
2022-10-19T06:06:46.886Z,26.38
2022-10-19T06:09:37.626Z,26.05
2022-10-19T06:12:26.861Z,25.55
2022-10-19T06:15:16.608Z,25.75
2022-10-19T06:18:06.012Z,20.90
2022-10-19T06:20:55.562Z,23.10
2022-10-19T06:23:45.461Z,24.67
2022-10-19T06:26:35.615Z,24.77
2022-10-19T06:29:25.269Z,24.17
2022-10-19T06:32:14.932Z,22.83
2022-10-19T06:35:04.401Z,25.60
2022-10-19T06:37:53.751Z,25.25
2022-10-19T06:40:43.147Z,26.15
2022-10-19T06:43:32.873Z,24.60
2022-10-19T06:46:24.935Z,26.13
2022-10-19T06:49:15.370Z,24.40
2022-10-19T06:52:06.817Z,21.20
2022-10-19T06:54:56.668Z,22.83
2022-10-19T06:57:46.389Z,23.52
2022-10-19T07:00:35.738Z,26.35
2022-10-19T07:03:26.449Z,24.17
2022-10-19T07:06:16.163Z,20.73
2022-10-19T07:09:05.546Z,26.83
2022-10-19T07:11:55.175Z,25.83
2022-10-19T07:14:44.572Z,24.77
2022-10-19T07:17:33.988Z,22.52
2022-10-19T07:20:23.784Z,23.13
2022-10-19T07:23:13.063Z,29.20
2022-10-19T07:26:07.551Z,22.75
2022-10-19T07:28:58.810Z,25.02
2022-10-19T07:31:48.075Z,23.40
2022-10-19T07:34:37.278Z,25.02
2022-10-19T07:37:26.814Z,23.55
2022-10-19T07:40:16.253Z,21.73
2022-10-19T07:43:05.706Z,23.15
2022-10-19T07:46:06.628Z,21.80
2022-10-19T07:48:56.469Z,26.33
2022-10-19T07:51:45.849Z,25.90
2022-10-19T07:54:35.327Z,25.98
2022-10-19T07:57:27.247Z,25.08
2022-10-19T08:00:17.925Z,24.50
2022-10-19T08:06:20.102Z,24.20
2022-10-19T08:09:11.463Z,26.50
2022-10-19T08:12:06.585Z,24.65
2022-10-19T08:14:55.949Z,29.15
2022-10-19T08:17:45.295Z,24.73
2022-10-19T08:20:34.769Z,23.65
2022-10-19T08:23:24.320Z,25.45
2022-10-19T08:26:13.606Z,24.67
2022-10-19T08:29:04.816Z,24.25
2022-10-19T08:31:54.627Z,23.23
2022-10-19T08:34:44.259Z,25.27
2022-10-19T08:37:44.244Z,21.77
2022-10-19T08:40:34.992Z,26.58
2022-10-19T08:43:36.809Z,24.20
2022-10-19T08:46:26.035Z,24.38
2022-10-19T08:49:24.862Z,24.40
2022-10-19T08:52:36.721Z,27.30
2022-10-19T08:55:37.880Z,26.90
2022-10-19T08:58:51.912Z,29.50
2022-10-19T09:01:47.912Z,25.40
2022-10-19T09:04:43.208Z,24.98
2022-10-19T09:07:46.448Z,25.50
2022-10-19T09:10:38.789Z,24.20
2022-10-19T09:14:04.159Z,26.35
2022-10-19T09:16:56.175Z,27.85
2022-10-19T09:19:46.661Z,27.98
2022-10-19T09:22:39.460Z,27.05
2022-10-19T09:25:31.928Z,26.35
2022-10-19T09:28:40.164Z,25.55
2022-10-19T09:31:44.466Z,24.30
2022-10-19T09:34:40.281Z,27.02
2022-10-19T09:37:33.904Z,25.48
2022-10-19T09:40:26.868Z,24.20
2022-10-19T09:43:24.611Z,24.65
2022-10-19T09:46:22.503Z,25.20
2022-10-19T09:49:12.772Z,24.20
2022-10-19T09:52:02.911Z,24.88
2022-10-19T09:55:03.178Z,26.40
2022-10-19T09:58:04.588Z,25.13
2022-10-19T10:00:59.112Z,26.83
2022-10-19T10:03:55.873Z,27.13
2022-10-19T10:06:50.110Z,22.35
2022-10-19T10:09:43.194Z,22.27
2022-10-19T10:12:37.045Z,30.38
2022-10-19T10:15:30.177Z,25.05
2022-10-19T10:18:21.277Z,24.00
2022-10-19T10:21:25.445Z,26.05
2022-10-19T10:24:17.897Z,27.58
2022-10-19T10:27:26.169Z,29.40
2022-10-19T10:30:19.777Z,27.70
2022-10-19T10:33:27.126Z,25.92
2022-10-19T10:36:29.308Z,25.33
2022-10-19T10:39:20.599Z,22.17
2022-10-19T10:42:19.110Z,21.83
2022-10-19T10:45:35.273Z,23.48
2022-10-19T10:48:48.529Z,25.95
2022-10-19T10:51:42.461Z,24.85
2022-10-19T10:54:34.940Z,24.70
2022-10-19T10:57:30.754Z,23.08
2022-10-19T11:00:26.463Z,26.13
2022-10-19T11:03:30.750Z,25.98
2022-10-19T11:09:33.222Z,25.65
2022-10-19T11:12:40.714Z,26.85
2022-10-19T11:15:40.916Z,23.38
2022-10-19T11:18:51.956Z,24.50
2022-10-19T11:21:57.057Z,25.23
2022-10-19T11:25:00.937Z,23.60
2022-10-19T11:28:30.202Z,26.25
2022-10-19T11:31:39.158Z,23.63
2022-10-19T11:34:38.772Z,22.35
2022-10-19T11:37:50.133Z,24.58
2022-10-19T11:41:23.363Z,25.17
2022-10-19T11:44:30.378Z,25.88
2022-10-19T11:47:26.578Z,26.83
2022-10-19T11:50:53.927Z,24.23
2022-10-19T11:53:56.150Z,21.45
2022-10-19T11:57:18.385Z,27.73
2022-10-19T12:00:15.038Z,22.70
2022-10-19T12:03:32.214Z,23.35
2022-10-19T12:06:46.775Z,23.52
2022-10-19T12:09:46.271Z,29.42
2022-10-19T12:12:44.458Z,23.30
2022-10-19T12:15:49.424Z,23.83
2022-10-19T12:18:49.519Z,23.38
2022-10-19T12:21:42.303Z,24.65
2022-10-19T12:27:37.514Z,22.08
2022-10-19T12:30:28.848Z,25.10
2022-10-19T12:33:24.836Z,20.48
2022-10-19T12:36:27.235Z,25.10
2022-10-19T12:39:24.420Z,23.58
2022-10-19T12:42:44.729Z,21.70
2022-10-19T12:45:39.610Z,22.48
2022-10-19T12:48:30.512Z,25.35
2022-10-19T12:51:21.361Z,20.60
2022-10-19T12:54:12.138Z,22.55
2022-10-19T12:57:04.719Z,18.52
2022-10-19T13:00:30.670Z,22.48
2022-10-19T13:03:26.368Z,20.25
2022-10-19T13:06:33.728Z,22.73
2022-10-19T13:09:46.367Z,22.80
2022-10-19T13:12:48.074Z,23.93
2022-10-19T13:15:37.928Z,22.17
2022-10-19T13:19:01.504Z,20.90
2022-10-19T13:24:43.541Z,19.90
2022-10-19T13:27:39.662Z,19.98
2022-10-19T13:30:41.305Z,23.33
2022-10-19T13:33:35.080Z,22.23
2022-10-19T13:36:27.950Z,20.83
2022-10-19T13:39:18.705Z,18.83
2022-10-19T13:42:28.383Z,20.25
2022-10-19T13:45:26.344Z,18.15
2022-10-19T13:48:31.345Z,19.13
2022-10-19T13:51:58.035Z,22.83
2022-10-19T13:55:13.014Z,20.98
2022-10-19T13:58:24.447Z,18.88
2022-10-19T14:01:32.948Z,17.40
2022-10-19T14:04:41.254Z,19.35
2022-10-19T14:08:08.214Z,18.30
2022-10-19T14:11:08.170Z,18.17
2022-10-19T14:14:14.555Z,17.67
2022-10-19T14:17:05.314Z,19.60
2022-10-19T14:20:00.942Z,19.63
2022-10-19T14:22:51.993Z,18.15
2022-10-19T14:25:42.401Z,20.00
2022-10-19T14:28:33.395Z,18.73
2022-10-19T14:31:27.148Z,20.27
2022-10-19T14:34:17.906Z,19.25
2022-10-19T14:37:17.455Z,18.45
2022-10-19T14:40:29.558Z,18.52
2022-10-19T14:43:33.661Z,15.05
2022-10-19T14:46:27.459Z,19.63
2022-10-19T14:49:18.336Z,24.27
2022-10-19T14:52:07.689Z,21.90
2022-10-19T14:54:58.662Z,20.98
2022-10-19T14:57:53.151Z,19.25
2022-10-19T15:00:44.622Z,17.13
2022-10-19T15:03:34.866Z,15.32
2022-10-19T15:06:33.973Z,15.55
2022-10-19T15:09:36.968Z,16.63
2022-10-19T15:12:32.049Z,19.73
2022-10-19T15:15:28.977Z,17.88
2022-10-19T15:18:43.591Z,16.45
2022-10-19T15:21:33.217Z,16.85
2022-10-19T15:24:29.140Z,18.80
2022-10-19T15:27:23.058Z,16.65
2022-10-19T15:30:27.048Z,18.15
2022-10-19T15:33:18.737Z,20.25
2022-10-19T15:36:18.185Z,19.80
2022-10-19T15:39:18.226Z,16.42
2022-10-19T15:42:39.270Z,17.27
2022-10-19T15:45:37.966Z,16.90
2022-10-19T15:48:42.739Z,15.00
2022-10-19T15:51:38.527Z,13.98
2022-10-19T15:54:28.759Z,15.80
2022-10-19T15:57:26.933Z,15.00
2022-10-19T16:00:19.431Z,13.77
2022-10-19T16:03:10.299Z,12.90
2022-10-19T16:06:00.249Z,15.02
2022-10-19T16:08:52.387Z,14.60
2022-10-19T16:11:42.460Z,14.90
2022-10-19T16:14:35.769Z,15.43
2022-10-19T16:17:26.525Z,14.07
2022-10-19T16:20:16.426Z,13.60
2022-10-19T16:23:06.584Z,15.82
2022-10-19T16:25:56.428Z,16.23
2022-10-19T16:28:46.672Z,17.33
2022-10-19T16:31:37.224Z,12.57
2022-10-19T16:34:27.137Z,14.40
2022-10-19T16:37:17.037Z,11.00
2022-10-19T16:40:08.919Z,11.20
2022-10-19T16:43:01.310Z,14.05
2022-10-19T16:45:51.416Z,12.00
2022-10-19T16:48:41.903Z,13.02
2022-10-19T16:51:42.041Z,12.35
2022-10-19T16:54:32.021Z,10.77
2022-10-19T16:57:22.819Z,13.45
2022-10-19T17:00:13.371Z,10.60
2022-10-19T17:03:03.739Z,11.75
2022-10-19T17:05:53.212Z,12.55
2022-10-19T17:11:53.585Z,11.40
2022-10-19T17:14:44.749Z,10.48
2022-10-19T17:17:35.544Z,11.70
2022-10-19T17:20:25.674Z,11.93
2022-10-19T17:23:15.531Z,10.57
2022-10-19T17:26:07.298Z,10.05
2022-10-19T17:28:57.884Z,11.07
2022-10-19T17:31:48.198Z,9.18
2022-10-19T17:34:38.100Z,9.73
2022-10-19T17:37:28.249Z,8.30
2022-10-19T17:40:18.065Z,9.10
2022-10-19T17:43:07.830Z,8.45
2022-10-19T17:46:06.874Z,8.88
2022-10-19T17:48:57.492Z,10.05
2022-10-19T17:51:46.983Z,9.35
2022-10-19T17:54:48.533Z,11.50
2022-10-19T17:57:47.180Z,11.73
2022-10-19T18:00:40.282Z,7.90
2022-10-19T18:03:32.250Z,9.93
2022-10-19T18:06:26.208Z,8.27
2022-10-19T18:09:16.432Z,7.07
2022-10-19T18:12:07.515Z,9.95
2022-10-19T18:14:57.662Z,11.40
2022-10-19T18:17:47.175Z,8.45
2022-10-19T18:20:40.717Z,8.45
2022-10-19T18:23:30.549Z,7.88
2022-10-19T18:26:23.290Z,7.35
2022-10-19T18:29:16.729Z,7.35
2022-10-19T18:34:55.859Z,7.18
2022-10-19T18:37:45.619Z,9.57
2022-10-19T18:40:40.910Z,7.07
2022-10-19T18:43:30.584Z,7.38
2022-10-19T18:46:22.182Z,6.10
2022-10-19T18:49:13.658Z,7.07
2022-10-19T18:52:03.099Z,7.13
2022-10-19T18:54:53.537Z,9.13
2022-10-19T18:57:43.026Z,8.82
2022-10-19T19:00:32.782Z,6.88
2022-10-19T19:03:26.812Z,6.80
2022-10-19T19:06:25.658Z,6.18
2022-10-19T19:09:15.504Z,5.88
2022-10-19T19:12:06.014Z,6.45
2022-10-19T19:14:55.618Z,7.97
2022-10-19T19:17:48.257Z,9.23
2022-10-19T19:20:41.898Z,7.60
2022-10-19T19:23:32.793Z,7.45
2022-10-19T19:26:24.423Z,7.97
2022-10-19T19:29:13.912Z,6.22
2022-10-19T19:32:03.610Z,8.73
2022-10-19T19:34:54.893Z,6.38
2022-10-19T19:37:44.680Z,5.80
2022-10-19T19:40:34.472Z,5.45
2022-10-19T19:43:24.356Z,5.88
2022-10-19T19:46:19.099Z,7.07
2022-10-19T19:49:09.289Z,8.45
2022-10-19T19:51:58.995Z,7.18
2022-10-19T19:54:48.646Z,5.55
2022-10-19T19:57:38.303Z,7.72
2022-10-19T20:00:30.583Z,6.10
2022-10-19T20:03:20.527Z,6.65
2022-10-19T20:06:10.942Z,6.03
2022-10-19T20:09:00.943Z,7.63
2022-10-19T20:11:50.739Z,5.70
2022-10-19T20:14:41.371Z,5.30
2022-10-19T20:17:31.700Z,5.68
2022-10-19T20:20:22.692Z,5.47
2022-10-19T20:23:12.850Z,5.60
2022-10-19T20:26:03.335Z,7.47
2022-10-19T20:28:53.579Z,7.38
2022-10-19T20:31:43.419Z,6.40
2022-10-19T20:34:33.571Z,7.22
2022-10-19T20:37:24.139Z,7.25
2022-10-19T20:40:14.190Z,6.20
2022-10-19T20:43:03.758Z,6.72
2022-10-19T20:45:56.821Z,6.78
2022-10-19T20:48:46.869Z,6.82
2022-10-19T20:51:38.185Z,6.35
2022-10-19T20:54:28.182Z,7.75
2022-10-19T20:57:18.549Z,6.65
2022-10-19T21:00:10.025Z,5.43
2022-10-19T21:03:00.736Z,6.78
2022-10-19T21:05:50.737Z,6.28
2022-10-19T21:08:40.420Z,7.13
2022-10-19T21:11:35.878Z,6.63
2022-10-19T21:14:31.495Z,7.63
2022-10-19T21:17:21.213Z,6.85
2022-10-19T21:20:11.839Z,6.15
2022-10-19T21:23:01.702Z,7.10
2022-10-19T21:25:55.789Z,6.38
2022-10-19T21:28:49.914Z,6.78
2022-10-19T21:31:48.533Z,6.85
2022-10-19T21:34:39.734Z,7.75
2022-10-19T21:37:31.345Z,5.82
2022-10-19T21:40:21.537Z,7.20
2022-10-19T21:43:12.505Z,5.70
2022-10-19T21:46:07.594Z,7.20
2022-10-19T21:48:58.154Z,6.25
2022-10-19T21:51:56.256Z,6.35
2022-10-19T21:54:46.139Z,5.80
2022-10-19T21:57:35.977Z,5.10
2022-10-19T22:00:25.581Z,5.15
2022-10-19T22:03:18.765Z,5.82
2022-10-19T22:06:09.353Z,5.60
2022-10-19T22:09:05.014Z,6.43
2022-10-19T22:11:58.104Z,6.25
2022-10-19T22:14:48.534Z,8.13
2022-10-19T22:17:38.489Z,8.25
2022-10-19T22:20:28.239Z,6.32
2022-10-19T22:23:17.872Z,6.53
2022-10-19T22:26:18.181Z,6.82
2022-10-19T22:29:09.432Z,6.20
2022-10-19T22:32:00.261Z,5.53
2022-10-19T22:34:50.361Z,8.15
2022-10-19T22:37:43.941Z,6.25
2022-10-19T22:40:34.010Z,6.25
2022-10-19T22:43:42.204Z,11.75
2022-10-19T22:46:32.277Z,8.68
2022-10-19T22:49:25.357Z,7.93
2022-10-19T22:52:34.258Z,6.32
2022-10-19T22:55:25.015Z,8.00
2022-10-19T22:58:15.532Z,9.00
2022-10-19T23:01:16.557Z,6.32
2022-10-19T23:04:06.554Z,8.55
2022-10-19T23:06:56.556Z,6.85
2022-10-19T23:09:46.015Z,12.40
2022-10-19T23:12:35.859Z,11.68
2022-10-19T23:15:25.820Z,6.63
2022-10-19T23:18:15.215Z,9.85
2022-10-19T23:21:12.184Z,11.15
2022-10-19T23:24:02.353Z,8.38
2022-10-19T23:26:52.126Z,9.32
2022-10-19T23:29:42.582Z,10.52
2022-10-19T23:32:32.224Z,11.23
2022-10-19T23:35:21.960Z,9.95
2022-10-19T23:38:11.869Z,9.35
2022-10-19T23:41:02.396Z,8.05
2022-10-19T23:43:52.566Z,6.07
2022-10-19T23:46:43.501Z,7.75
2022-10-19T23:49:33.700Z,10.73
2022-10-19T23:52:25.962Z,5.50
2022-10-19T23:55:15.886Z,8.40
2022-10-19T23:58:05.834Z,7.30
